sensor_id;sensor_type;location;lat;lon;timestamp;P1;durP1;ratioP1;P2;durP2;ratioP2
62709;SDS011;48770;51.624;5.886;2023-11-19T00:02:19;0.00;;;0.00;;
62709;SDS011;48770;51.624;5.886;2023-11-19T00:04:44;1.05;;;0.10;;
62709;SDS011;48770;51.624;5.886;2023-11-19T00:07:10;0.30;;;0.10;;
62709;SDS011;48770;51.624;5.886;2023-11-19T00:09:38;0.10;;;0.10;;
62709;SDS011;48770;51.624;5.886;2023-11-19T00:12:04;0.20;;;0.10;;
62709;SDS011;48770;51.624;5.886;2023-11-19T00:14:30;0.10;;;0.10;;
62709;SDS011;48770;51.624;5.886;2023-11-19T00:16:55;0.30;;;0.20;;
62709;SDS011;48770;51.624;5.886;2023-11-19T00:19:21;0.10;;;0.10;;
62709;SDS011;48770;51.624;5.886;2023-11-19T00:21:46;0.10;;;0.10;;
62709;SDS011;48770;51.624;5.886;2023-11-19T00:24:12;0.15;;;0.15;;
62709;SDS011;48770;51.624;5.886;2023-11-19T00:26:38;0.35;;;0.10;;
62709;SDS011;48770;51.624;5.886;2023-11-19T00:29:06;0.40;;;0.10;;
62709;SDS011;48770;51.624;5.886;2023-11-19T00:31:32;0.28;;;0.17;;
62709;SDS011;48770;51.624;5.886;2023-11-19T00:33:57;0.60;;;0.22;;
62709;SDS011;48770;51.624;5.886;2023-11-19T00:36:22;0.17;;;0.10;;
62709;SDS011;48770;51.624;5.886;2023-11-19T00:38:49;0.30;;;0.10;;
62709;SDS011;48770;51.624;5.886;2023-11-19T00:41:15;0.03;;;0.03;;
62709;SDS011;48770;51.624;5.886;2023-11-19T00:43:41;0.10;;;0.10;;
62709;SDS011;48770;51.624;5.886;2023-11-19T00:46:07;0.32;;;0.20;;
62709;SDS011;48770;51.624;5.886;2023-11-19T00:48:32;0.32;;;0.10;;
62709;SDS011;48770;51.624;5.886;2023-11-19T00:50:57;0.10;;;0.10;;
62709;SDS011;48770;51.624;5.886;2023-11-19T00:53:23;0.20;;;0.20;;
62709;SDS011;48770;51.624;5.886;2023-11-19T00:55:48;0.10;;;0.10;;
62709;SDS011;48770;51.624;5.886;2023-11-19T00:58:13;0.20;;;0.10;;
62709;SDS011;48770;51.624;5.886;2023-11-19T01:00:39;0.10;;;0.10;;
62709;SDS011;48770;51.624;5.886;2023-11-19T01:03:04;0.10;;;0.10;;
62709;SDS011;48770;51.624;5.886;2023-11-19T01:05:32;0.10;;;0.10;;
62709;SDS011;48770;51.624;5.886;2023-11-19T01:07:57;0.13;;;0.13;;
62709;SDS011;48770;51.624;5.886;2023-11-19T01:10:22;0.10;;;0.10;;
62709;SDS011;48770;51.624;5.886;2023-11-19T01:12:49;0.47;;;0.20;;
62709;SDS011;48770;51.624;5.886;2023-11-19T01:15:14;0.40;;;0.10;;
62709;SDS011;48770;51.624;5.886;2023-11-19T01:17:39;0.10;;;0.10;;
62709;SDS011;48770;51.624;5.886;2023-11-19T01:20:05;0.20;;;0.10;;
62709;SDS011;48770;51.624;5.886;2023-11-19T01:22:31;0.35;;;0.10;;
62709;SDS011;48770;51.624;5.886;2023-11-19T01:24:57;0.20;;;0.10;;
62709;SDS011;48770;51.624;5.886;2023-11-19T01:27:23;0.30;;;0.10;;
62709;SDS011;48770;51.624;5.886;2023-11-19T01:29:51;0.13;;;0.10;;
62709;SDS011;48770;51.624;5.886;2023-11-19T01:32:16;0.40;;;0.22;;
62709;SDS011;48770;51.624;5.886;2023-11-19T01:34:41;0.25;;;0.20;;
62709;SDS011;48770;51.624;5.886;2023-11-19T01:37:07;0.30;;;0.10;;
62709;SDS011;48770;51.624;5.886;2023-11-19T01:39:34;0.10;;;0.10;;
62709;SDS011;48770;51.624;5.886;2023-11-19T01:41:59;0.20;;;0.10;;
62709;SDS011;48770;51.624;5.886;2023-11-19T01:44:25;0.25;;;0.10;;
62709;SDS011;48770;51.624;5.886;2023-11-19T01:46:50;0.20;;;0.20;;
62709;SDS011;48770;51.624;5.886;2023-11-19T01:49:16;0.20;;;0.20;;
62709;SDS011;48770;51.624;5.886;2023-11-19T01:51:43;0.82;;;0.20;;
62709;SDS011;48770;51.624;5.886;2023-11-19T01:54:09;0.35;;;0.20;;
62709;SDS011;48770;51.624;5.886;2023-11-19T01:56:35;0.20;;;0.10;;
62709;SDS011;48770;51.624;5.886;2023-11-19T01:59:05;0.32;;;0.20;;
62709;SDS011;48770;51.624;5.886;2023-11-19T02:01:31;0.10;;;0.10;;
62709;SDS011;48770;51.624;5.886;2023-11-19T02:03:59;0.55;;;0.10;;
62709;SDS011;48770;51.624;5.886;2023-11-19T02:06:25;1.42;;;0.35;;
62709;SDS011;48770;51.624;5.886;2023-11-19T02:08:52;0.40;;;0.20;;
62709;SDS011;48770;51.624;5.886;2023-11-19T02:11:17;1.13;;;0.17;;
62709;SDS011;48770;51.624;5.886;2023-11-19T02:13:43;0.40;;;0.15;;
62709;SDS011;48770;51.624;5.886;2023-11-19T02:16:09;0.30;;;0.20;;
62709;SDS011;48770;51.624;5.886;2023-11-19T02:18:36;0.43;;;0.13;;
62709;SDS011;48770;51.624;5.886;2023-11-19T02:21:01;0.25;;;0.10;;
62709;SDS011;48770;51.624;5.886;2023-11-19T02:23:27;0.65;;;0.10;;
62709;SDS011;48770;51.624;5.886;2023-11-19T02:28:36;0.20;;;0.10;;
62709;SDS011;48770;51.624;5.886;2023-11-19T02:31:02;0.22;;;0.10;;
62709;SDS011;48770;51.624;5.886;2023-11-19T02:33:29;0.22;;;0.10;;
62709;SDS011;48770;51.624;5.886;2023-11-19T02:35:55;0.70;;;0.28;;
62709;SDS011;48770;51.624;5.886;2023-11-19T02:38:21;0.50;;;0.10;;
62709;SDS011;48770;51.624;5.886;2023-11-19T02:40:46;0.65;;;0.20;;
62709;SDS011;48770;51.624;5.886;2023-11-19T02:43:12;0.22;;;0.10;;
62709;SDS011;48770;51.624;5.886;2023-11-19T02:45:38;0.30;;;0.10;;
62709;SDS011;48770;51.624;5.886;2023-11-19T02:48:03;1.33;;;0.30;;
62709;SDS011;48770;51.624;5.886;2023-11-19T02:50:31;0.47;;;0.20;;
62709;SDS011;48770;51.624;5.886;2023-11-19T02:52:57;0.30;;;0.20;;
62709;SDS011;48770;51.624;5.886;2023-11-19T02:55:22;0.52;;;0.25;;
62709;SDS011;48770;51.624;5.886;2023-11-19T02:57:49;0.30;;;0.20;;
62709;SDS011;48770;51.624;5.886;2023-11-19T03:00:21;0.77;;;0.15;;
62709;SDS011;48770;51.624;5.886;2023-11-19T03:02:49;0.55;;;0.20;;
62709;SDS011;48770;51.624;5.886;2023-11-19T03:05:24;1.02;;;0.43;;
62709;SDS011;48770;51.624;5.886;2023-11-19T03:07:50;0.75;;;0.20;;
62709;SDS011;48770;51.624;5.886;2023-11-19T03:10:15;0.68;;;0.20;;
62709;SDS011;48770;51.624;5.886;2023-11-19T03:12:41;0.90;;;0.10;;
62709;SDS011;48770;51.624;5.886;2023-11-19T03:15:07;0.63;;;0.20;;
62709;SDS011;48770;51.624;5.886;2023-11-19T03:17:35;0.32;;;0.10;;
62709;SDS011;48770;51.624;5.886;2023-11-19T03:20:09;0.73;;;0.20;;
62709;SDS011;48770;51.624;5.886;2023-11-19T03:22:38;1.63;;;0.43;;
62709;SDS011;48770;51.624;5.886;2023-11-19T03:25:04;0.43;;;0.32;;
62709;SDS011;48770;51.624;5.886;2023-11-19T03:27:30;0.10;;;0.10;;
62709;SDS011;48770;51.624;5.886;2023-11-19T03:29:55;0.98;;;0.17;;
62709;SDS011;48770;51.624;5.886;2023-11-19T03:32:20;0.88;;;0.30;;
62709;SDS011;48770;51.624;5.886;2023-11-19T03:34:45;2.22;;;0.28;;
62709;SDS011;48770;51.624;5.886;2023-11-19T03:37:11;0.22;;;0.10;;
62709;SDS011;48770;51.624;5.886;2023-11-19T03:39:37;0.75;;;0.20;;
62709;SDS011;48770;51.624;5.886;2023-11-19T03:42:03;1.05;;;0.20;;
62709;SDS011;48770;51.624;5.886;2023-11-19T03:44:28;1.30;;;0.63;;
62709;SDS011;48770;51.624;5.886;2023-11-19T03:46:53;0.90;;;0.20;;
62709;SDS011;48770;51.624;5.886;2023-11-19T03:49:19;0.68;;;0.25;;
62709;SDS011;48770;51.624;5.886;2023-11-19T03:51:44;0.93;;;0.30;;
62709;SDS011;48770;51.624;5.886;2023-11-19T03:54:09;1.48;;;0.35;;
62709;SDS011;48770;51.624;5.886;2023-11-19T03:56:36;0.98;;;0.25;;
62709;SDS011;48770;51.624;5.886;2023-11-19T03:59:02;1.02;;;0.30;;
62709;SDS011;48770;51.624;5.886;2023-11-19T04:01:27;1.30;;;0.20;;
62709;SDS011;48770;51.624;5.886;2023-11-19T04:03:53;0.93;;;0.25;;
62709;SDS011;48770;51.624;5.886;2023-11-19T04:06:18;0.68;;;0.20;;
62709;SDS011;48770;51.624;5.886;2023-11-19T04:08:43;0.40;;;0.20;;
62709;SDS011;48770;51.624;5.886;2023-11-19T04:11:10;0.57;;;0.10;;
62709;SDS011;48770;51.624;5.886;2023-11-19T04:13:35;0.65;;;0.28;;
62709;SDS011;48770;51.624;5.886;2023-11-19T04:16:00;1.50;;;0.30;;
62709;SDS011;48770;51.624;5.886;2023-11-19T04:18:26;1.10;;;0.40;;
62709;SDS011;48770;51.624;5.886;2023-11-19T04:20:52;0.77;;;0.25;;
62709;SDS011;48770;51.624;5.886;2023-11-19T04:23:17;0.60;;;0.20;;
62709;SDS011;48770;51.624;5.886;2023-11-19T04:25:42;1.25;;;0.30;;
62709;SDS011;48770;51.624;5.886;2023-11-19T04:28:08;0.80;;;0.30;;
62709;SDS011;48770;51.624;5.886;2023-11-19T04:30:33;2.58;;;0.43;;
62709;SDS011;48770;51.624;5.886;2023-11-19T04:33:00;0.57;;;0.22;;
62709;SDS011;48770;51.624;5.886;2023-11-19T04:35:25;1.50;;;0.40;;
62709;SDS011;48770;51.624;5.886;2023-11-19T04:37:51;0.77;;;0.40;;
62709;SDS011;48770;51.624;5.886;2023-11-19T04:40:16;1.25;;;0.40;;
62709;SDS011;48770;51.624;5.886;2023-11-19T04:42:43;0.82;;;0.20;;
62709;SDS011;48770;51.624;5.886;2023-11-19T04:45:09;0.85;;;0.30;;
62709;SDS011;48770;51.624;5.886;2023-11-19T04:47:35;1.85;;;0.30;;
62709;SDS011;48770;51.624;5.886;2023-11-19T04:50:01;1.60;;;0.40;;
62709;SDS011;48770;51.624;5.886;2023-11-19T04:52:28;0.32;;;0.25;;
62709;SDS011;48770;51.624;5.886;2023-11-19T04:54:53;2.72;;;0.40;;
62709;SDS011;48770;51.624;5.886;2023-11-19T04:57:18;1.17;;;0.30;;
62709;SDS011;48770;51.624;5.886;2023-11-19T04:59:44;2.55;;;0.60;;
62709;SDS011;48770;51.624;5.886;2023-11-19T05:02:09;2.38;;;0.45;;
62709;SDS011;48770;51.624;5.886;2023-11-19T05:04:34;2.38;;;0.30;;
62709;SDS011;48770;51.624;5.886;2023-11-19T05:07:00;0.88;;;0.30;;
62709;SDS011;48770;51.624;5.886;2023-11-19T05:09:25;1.55;;;0.40;;
62709;SDS011;48770;51.624;5.886;2023-11-19T05:11:51;1.92;;;0.50;;
62709;SDS011;48770;51.624;5.886;2023-11-19T05:14:16;1.30;;;0.47;;
62709;SDS011;48770;51.624;5.886;2023-11-19T05:16:43;1.80;;;0.40;;
62709;SDS011;48770;51.624;5.886;2023-11-19T05:19:09;2.38;;;0.40;;
62709;SDS011;48770;51.624;5.886;2023-11-19T05:21:34;2.40;;;0.22;;
62709;SDS011;48770;51.624;5.886;2023-11-19T05:24:01;3.42;;;0.55;;
62709;SDS011;48770;51.624;5.886;2023-11-19T05:26:29;4.57;;;0.60;;
62709;SDS011;48770;51.624;5.886;2023-11-19T05:28:55;1.60;;;0.50;;
62709;SDS011;48770;51.624;5.886;2023-11-19T05:31:20;0.98;;;0.50;;
62709;SDS011;48770;51.624;5.886;2023-11-19T05:33:45;1.58;;;0.50;;
62709;SDS011;48770;51.624;5.886;2023-11-19T05:36:11;1.65;;;0.50;;
62709;SDS011;48770;51.624;5.886;2023-11-19T05:38:37;1.95;;;0.40;;
62709;SDS011;48770;51.624;5.886;2023-11-19T05:41:03;1.50;;;0.40;;
62709;SDS011;48770;51.624;5.886;2023-11-19T05:43:29;0.75;;;0.22;;
62709;SDS011;48770;51.624;5.886;2023-11-19T05:45:55;2.40;;;0.30;;
62709;SDS011;48770;51.624;5.886;2023-11-19T05:48:20;1.17;;;0.22;;
62709;SDS011;48770;51.624;5.886;2023-11-19T05:50:46;3.80;;;0.70;;
62709;SDS011;48770;51.624;5.886;2023-11-19T05:53:12;2.55;;;0.50;;
62709;SDS011;48770;51.624;5.886;2023-11-19T05:55:39;1.95;;;0.57;;
62709;SDS011;48770;51.624;5.886;2023-11-19T05:58:11;1.27;;;0.43;;
62709;SDS011;48770;51.624;5.886;2023-11-19T06:00:40;1.02;;;0.38;;
62709;SDS011;48770;51.624;5.886;2023-11-19T06:03:05;0.50;;;0.20;;
62709;SDS011;48770;51.624;5.886;2023-11-19T06:05:32;2.00;;;0.52;;
62709;SDS011;48770;51.624;5.886;2023-11-19T06:07:58;2.25;;;0.60;;
62709;SDS011;48770;51.624;5.886;2023-11-19T06:10:23;2.72;;;0.40;;
62709;SDS011;48770;51.624;5.886;2023-11-19T06:12:54;2.97;;;1.08;;
62709;SDS011;48770;51.624;5.886;2023-11-19T06:15:22;2.65;;;0.45;;
62709;SDS011;48770;51.624;5.886;2023-11-19T06:17:47;2.30;;;0.70;;
62709;SDS011;48770;51.624;5.886;2023-11-19T06:20:13;1.98;;;0.57;;
62709;SDS011;48770;51.624;5.886;2023-11-19T06:22:39;1.70;;;0.50;;
62709;SDS011;48770;51.624;5.886;2023-11-19T06:25:05;2.33;;;0.65;;
62709;SDS011;48770;51.624;5.886;2023-11-19T06:27:32;2.00;;;0.43;;
62709;SDS011;48770;51.624;5.886;2023-11-19T06:29:57;1.85;;;0.50;;
62709;SDS011;48770;51.624;5.886;2023-11-19T06:32:22;2.03;;;0.52;;
62709;SDS011;48770;51.624;5.886;2023-11-19T06:34:48;1.85;;;0.35;;
62709;SDS011;48770;51.624;5.886;2023-11-19T06:37:13;1.77;;;0.60;;
62709;SDS011;48770;51.624;5.886;2023-11-19T06:39:38;2.53;;;0.50;;
62709;SDS011;48770;51.624;5.886;2023-11-19T06:42:04;1.58;;;0.60;;
62709;SDS011;48770;51.624;5.886;2023-11-19T06:44:29;1.73;;;0.50;;
62709;SDS011;48770;51.624;5.886;2023-11-19T06:46:54;2.15;;;0.57;;
62709;SDS011;48770;51.624;5.886;2023-11-19T06:49:20;2.05;;;0.65;;
62709;SDS011;48770;51.624;5.886;2023-11-19T06:51:45;1.75;;;0.50;;
62709;SDS011;48770;51.624;5.886;2023-11-19T06:54:11;1.85;;;0.57;;
62709;SDS011;48770;51.624;5.886;2023-11-19T06:56:36;3.28;;;0.75;;
62709;SDS011;48770;51.624;5.886;2023-11-19T06:59:02;1.10;;;0.40;;
62709;SDS011;48770;51.624;5.886;2023-11-19T07:01:27;1.70;;;0.50;;
62709;SDS011;48770;51.624;5.886;2023-11-19T07:03:52;2.70;;;0.68;;
62709;SDS011;48770;51.624;5.886;2023-11-19T07:06:17;2.20;;;0.60;;
62709;SDS011;48770;51.624;5.886;2023-11-19T07:08:43;2.08;;;0.68;;
62709;SDS011;48770;51.624;5.886;2023-11-19T07:11:12;3.30;;;0.73;;
62709;SDS011;48770;51.624;5.886;2023-11-19T07:13:39;1.80;;;0.60;;
62709;SDS011;48770;51.624;5.886;2023-11-19T07:16:04;1.58;;;0.65;;
62709;SDS011;48770;51.624;5.886;2023-11-19T07:18:30;2.03;;;0.57;;
62709;SDS011;48770;51.624;5.886;2023-11-19T07:20:56;1.98;;;0.70;;
62709;SDS011;48770;51.624;5.886;2023-11-19T07:23:22;2.00;;;0.50;;
62709;SDS011;48770;51.624;5.886;2023-11-19T07:25:47;3.92;;;1.08;;
62709;SDS011;48770;51.624;5.886;2023-11-19T07:28:15;1.63;;;0.47;;
62709;SDS011;48770;51.624;5.886;2023-11-19T07:30:41;2.63;;;0.63;;
62709;SDS011;48770;51.624;5.886;2023-11-19T07:33:07;1.52;;;0.60;;
62709;SDS011;48770;51.624;5.886;2023-11-19T07:35:33;2.45;;;0.93;;
62709;SDS011;48770;51.624;5.886;2023-11-19T07:37:58;1.60;;;0.40;;
62709;SDS011;48770;51.624;5.886;2023-11-19T07:40:24;2.88;;;0.52;;
62709;SDS011;48770;51.624;5.886;2023-11-19T07:42:50;3.15;;;1.05;;
62709;SDS011;48770;51.624;5.886;2023-11-19T07:45:15;2.17;;;0.60;;
62709;SDS011;48770;51.624;5.886;2023-11-19T07:47:41;3.13;;;0.60;;
62709;SDS011;48770;51.624;5.886;2023-11-19T07:50:09;1.55;;;0.50;;
62709;SDS011;48770;51.624;5.886;2023-11-19T07:52:34;2.45;;;0.52;;
62709;SDS011;48770;51.624;5.886;2023-11-19T07:55:00;4.05;;;1.02;;
62709;SDS011;48770;51.624;5.886;2023-11-19T07:57:25;1.88;;;0.50;;
62709;SDS011;48770;51.624;5.886;2023-11-19T07:59:52;3.22;;;0.77;;
62709;SDS011;48770;51.624;5.886;2023-11-19T08:02:18;2.40;;;0.60;;
62709;SDS011;48770;51.624;5.886;2023-11-19T08:04:44;2.20;;;0.65;;
62709;SDS011;48770;51.624;5.886;2023-11-19T08:07:11;2.28;;;0.70;;
62709;SDS011;48770;51.624;5.886;2023-11-19T08:09:36;1.85;;;0.80;;
62709;SDS011;48770;51.624;5.886;2023-11-19T08:12:02;1.40;;;0.60;;
62709;SDS011;48770;51.624;5.886;2023-11-19T08:14:28;3.78;;;0.70;;
62709;SDS011;48770;51.624;5.886;2023-11-19T08:16:54;2.15;;;0.70;;
62709;SDS011;48770;51.624;5.886;2023-11-19T08:19:21;2.63;;;0.77;;
62709;SDS011;48770;51.624;5.886;2023-11-19T08:21:47;2.88;;;0.98;;
62709;SDS011;48770;51.624;5.886;2023-11-19T08:24:12;3.67;;;0.82;;
62709;SDS011;48770;51.624;5.886;2023-11-19T08:26:37;2.42;;;0.93;;
62709;SDS011;48770;51.624;5.886;2023-11-19T08:29:03;3.45;;;0.85;;
62709;SDS011;48770;51.624;5.886;2023-11-19T08:31:28;2.67;;;0.80;;
62709;SDS011;48770;51.624;5.886;2023-11-19T08:33:53;2.55;;;1.17;;
62709;SDS011;48770;51.624;5.886;2023-11-19T08:36:19;3.42;;;0.82;;
62709;SDS011;48770;51.624;5.886;2023-11-19T08:38:44;1.92;;;0.68;;
62709;SDS011;48770;51.624;5.886;2023-11-19T08:41:09;2.47;;;0.70;;
62709;SDS011;48770;51.624;5.886;2023-11-19T08:43:35;3.50;;;0.80;;
62709;SDS011;48770;51.624;5.886;2023-11-19T08:46:00;2.58;;;0.77;;
62709;SDS011;48770;51.624;5.886;2023-11-19T08:48:25;5.25;;;0.80;;
62709;SDS011;48770;51.624;5.886;2023-11-19T08:50:51;2.28;;;0.80;;
62709;SDS011;48770;51.624;5.886;2023-11-19T08:53:17;4.65;;;1.00;;
62709;SDS011;48770;51.624;5.886;2023-11-19T08:55:42;2.88;;;0.70;;
62709;SDS011;48770;51.624;5.886;2023-11-19T08:58:07;3.53;;;1.13;;
62709;SDS011;48770;51.624;5.886;2023-11-19T09:00:33;3.22;;;0.80;;
62709;SDS011;48770;51.624;5.886;2023-11-19T09:02:58;1.60;;;0.63;;
62709;SDS011;48770;51.624;5.886;2023-11-19T09:05:24;3.67;;;0.75;;
62709;SDS011;48770;51.624;5.886;2023-11-19T09:07:49;3.55;;;0.80;;
62709;SDS011;48770;51.624;5.886;2023-11-19T09:10:15;2.47;;;0.90;;
62709;SDS011;48770;51.624;5.886;2023-11-19T09:12:40;2.90;;;0.85;;
62709;SDS011;48770;51.624;5.886;2023-11-19T09:15:06;2.90;;;1.02;;
62709;SDS011;48770;51.624;5.886;2023-11-19T09:17:32;3.45;;;1.15;;
62709;SDS011;48770;51.624;5.886;2023-11-19T09:19:57;2.42;;;0.70;;
62709;SDS011;48770;51.624;5.886;2023-11-19T09:22:22;2.58;;;1.00;;
62709;SDS011;48770;51.624;5.886;2023-11-19T09:24:48;2.42;;;0.77;;
62709;SDS011;48770;51.624;5.886;2023-11-19T09:27:13;2.88;;;0.80;;
62709;SDS011;48770;51.624;5.886;2023-11-19T09:29:39;4.70;;;1.17;;
62709;SDS011;48770;51.624;5.886;2023-11-19T09:32:04;3.67;;;1.05;;
62709;SDS011;48770;51.624;5.886;2023-11-19T09:34:30;2.30;;;0.65;;
62709;SDS011;48770;51.624;5.886;2023-11-19T09:36:56;3.00;;;0.90;;
62709;SDS011;48770;51.624;5.886;2023-11-19T09:39:22;2.50;;;0.80;;
62709;SDS011;48770;51.624;5.886;2023-11-19T09:41:47;2.28;;;0.88;;
62709;SDS011;48770;51.624;5.886;2023-11-19T09:44:12;2.35;;;0.90;;
62709;SDS011;48770;51.624;5.886;2023-11-19T09:46:40;3.35;;;0.77;;
62709;SDS011;48770;51.624;5.886;2023-11-19T09:49:06;2.45;;;0.90;;
62709;SDS011;48770;51.624;5.886;2023-11-19T09:51:34;3.03;;;1.08;;
62709;SDS011;48770;51.624;5.886;2023-11-19T09:54:00;3.47;;;1.23;;
62709;SDS011;48770;51.624;5.886;2023-11-19T09:56:26;3.00;;;0.80;;
62709;SDS011;48770;51.624;5.886;2023-11-19T09:58:54;3.00;;;1.60;;
62709;SDS011;48770;51.624;5.886;2023-11-19T10:01:19;2.53;;;0.80;;
62709;SDS011;48770;51.624;5.886;2023-11-19T10:03:45;1.90;;;0.70;;
62709;SDS011;48770;51.624;5.886;2023-11-19T10:06:12;2.63;;;0.98;;
62709;SDS011;48770;51.624;5.886;2023-11-19T10:08:39;2.53;;;0.93;;
62709;SDS011;48770;51.624;5.886;2023-11-19T10:11:06;3.65;;;1.02;;
62709;SDS011;48770;51.624;5.886;2023-11-19T10:13:31;3.13;;;1.00;;
62709;SDS011;48770;51.624;5.886;2023-11-19T10:16:08;2.88;;;0.85;;
62709;SDS011;48770;51.624;5.886;2023-11-19T10:18:34;3.63;;;0.90;;
62709;SDS011;48770;51.624;5.886;2023-11-19T10:21:05;2.65;;;0.90;;
62709;SDS011;48770;51.624;5.886;2023-11-19T10:23:31;2.88;;;0.82;;
62709;SDS011;48770;51.624;5.886;2023-11-19T10:26:02;4.40;;;0.90;;
62709;SDS011;48770;51.624;5.886;2023-11-19T10:28:37;3.55;;;1.10;;
62709;SDS011;48770;51.624;5.886;2023-11-19T10:31:04;2.13;;;0.60;;
62709;SDS011;48770;51.624;5.886;2023-11-19T10:33:30;3.42;;;1.27;;
62709;SDS011;48770;51.624;5.886;2023-11-19T10:35:56;3.47;;;1.02;;
62709;SDS011;48770;51.624;5.886;2023-11-19T10:38:23;4.20;;;1.25;;
62709;SDS011;48770;51.624;5.886;2023-11-19T10:40:49;4.20;;;1.00;;
62709;SDS011;48770;51.624;5.886;2023-11-19T10:43:16;2.22;;;0.95;;
62709;SDS011;48770;51.624;5.886;2023-11-19T10:45:42;3.10;;;0.73;;
62709;SDS011;48770;51.624;5.886;2023-11-19T10:48:07;3.80;;;1.25;;
62709;SDS011;48770;51.624;5.886;2023-11-19T10:50:36;3.40;;;1.17;;
62709;SDS011;48770;51.624;5.886;2023-11-19T10:53:05;3.72;;;0.85;;
62709;SDS011;48770;51.624;5.886;2023-11-19T10:55:34;3.40;;;0.90;;
62709;SDS011;48770;51.624;5.886;2023-11-19T10:58:04;2.70;;;0.77;;
62709;SDS011;48770;51.624;5.886;2023-11-19T11:00:34;2.67;;;0.95;;
62709;SDS011;48770;51.624;5.886;2023-11-19T11:05:35;2.88;;;1.00;;
62709;SDS011;48770;51.624;5.886;2023-11-19T11:08:03;2.80;;;0.90;;
62709;SDS011;48770;51.624;5.886;2023-11-19T11:10:31;2.83;;;0.90;;
62709;SDS011;48770;51.624;5.886;2023-11-19T11:13:01;3.38;;;1.25;;
62709;SDS011;48770;51.624;5.886;2023-11-19T11:15:28;4.70;;;1.05;;
62709;SDS011;48770;51.624;5.886;2023-11-19T11:17:57;2.85;;;1.25;;
62709;SDS011;48770;51.624;5.886;2023-11-19T11:20:27;3.22;;;0.88;;
62709;SDS011;48770;51.624;5.886;2023-11-19T11:28:43;4.97;;;1.45;;
62709;SDS011;48770;51.624;5.886;2023-11-19T11:31:23;3.85;;;0.90;;
62709;SDS011;48770;51.624;5.886;2023-11-19T11:34:05;2.80;;;1.05;;
62709;SDS011;48770;51.624;5.886;2023-11-19T11:36:52;3.78;;;1.08;;
62709;SDS011;48770;51.624;5.886;2023-11-19T11:39:23;2.63;;;0.70;;
62709;SDS011;48770;51.624;5.886;2023-11-19T11:48:19;1.98;;;0.82;;
62709;SDS011;48770;51.624;5.886;2023-11-19T11:50:21;4.88;;;1.20;;
62709;SDS011;48770;51.624;5.886;2023-11-19T11:55:26;2.05;;;0.90;;
62709;SDS011;48770;51.624;5.886;2023-11-19T11:58:07;3.38;;;1.15;;
62709;SDS011;48770;51.624;5.886;2023-11-19T12:00:37;5.75;;;1.45;;
62709;SDS011;48770;51.624;5.886;2023-11-19T12:03:07;3.23;;;0.83;;
62709;SDS011;48770;51.624;5.886;2023-11-19T12:05:33;5.57;;;1.25;;
62709;SDS011;48770;51.624;5.886;2023-11-19T12:08:04;3.80;;;1.00;;
62709;SDS011;48770;51.624;5.886;2023-11-19T12:10:45;4.78;;;1.42;;
62709;SDS011;48770;51.624;5.886;2023-11-19T12:13:13;2.47;;;0.82;;
62709;SDS011;48770;51.624;5.886;2023-11-19T12:16:24;3.92;;;1.00;;
62709;SDS011;48770;51.624;5.886;2023-11-19T12:18:28;2.80;;;0.88;;
62709;SDS011;48770;51.624;5.886;2023-11-19T12:20:55;3.17;;;1.05;;
62709;SDS011;48770;51.624;5.886;2023-11-19T12:23:22;2.63;;;0.95;;
62709;SDS011;48770;51.624;5.886;2023-11-19T12:25:50;2.67;;;0.85;;
62709;SDS011;48770;51.624;5.886;2023-11-19T12:28:15;4.28;;;1.00;;
62709;SDS011;48770;51.624;5.886;2023-11-19T12:30:42;3.60;;;1.10;;
62709;SDS011;48770;51.624;5.886;2023-11-19T12:33:08;2.65;;;0.65;;
62709;SDS011;48770;51.624;5.886;2023-11-19T12:35:38;3.58;;;1.05;;
62709;SDS011;48770;51.624;5.886;2023-11-19T12:41:02;3.83;;;0.88;;
62709;SDS011;48770;51.624;5.886;2023-11-19T12:43:31;4.40;;;1.20;;
62709;SDS011;48770;51.624;5.886;2023-11-19T12:45:56;2.40;;;1.00;;
62709;SDS011;48770;51.624;5.886;2023-11-19T12:48:22;4.60;;;0.90;;
62709;SDS011;48770;51.624;5.886;2023-11-19T12:53:23;3.85;;;1.20;;
62709;SDS011;48770;51.624;5.886;2023-11-19T12:55:50;2.50;;;1.00;;
62709;SDS011;48770;51.624;5.886;2023-11-19T13:01:07;2.83;;;0.88;;
62709;SDS011;48770;51.624;5.886;2023-11-19T13:03:35;2.30;;;0.68;;
62709;SDS011;48770;51.624;5.886;2023-11-19T13:08:44;3.45;;;0.95;;
62709;SDS011;48770;51.624;5.886;2023-11-19T13:11:11;2.13;;;0.82;;
62709;SDS011;48770;51.624;5.886;2023-11-19T13:13:54;2.38;;;0.70;;
62709;SDS011;48770;51.624;5.886;2023-11-19T13:16:23;2.40;;;0.88;;
62709;SDS011;48770;51.624;5.886;2023-11-19T13:18:49;3.53;;;1.17;;
62709;SDS011;48770;51.624;5.886;2023-11-19T13:21:14;2.58;;;0.90;;
62709;SDS011;48770;51.624;5.886;2023-11-19T13:23:39;4.35;;;0.90;;
62709;SDS011;48770;51.624;5.886;2023-11-19T13:26:05;3.60;;;1.30;;
62709;SDS011;48770;51.624;5.886;2023-11-19T13:28:30;2.58;;;0.82;;
62709;SDS011;48770;51.624;5.886;2023-11-19T13:30:56;4.40;;;0.90;;
62709;SDS011;48770;51.624;5.886;2023-11-19T13:33:21;3.17;;;1.10;;
62709;SDS011;48770;51.624;5.886;2023-11-19T13:35:46;3.80;;;1.02;;
62709;SDS011;48770;51.624;5.886;2023-11-19T13:38:11;2.20;;;0.77;;
62709;SDS011;48770;51.624;5.886;2023-11-19T13:40:37;2.83;;;0.68;;
62709;SDS011;48770;51.624;5.886;2023-11-19T13:43:04;2.55;;;0.70;;
62709;SDS011;48770;51.624;5.886;2023-11-19T13:45:29;3.60;;;0.95;;
62709;SDS011;48770;51.624;5.886;2023-11-19T13:47:54;3.33;;;1.13;;
62709;SDS011;48770;51.624;5.886;2023-11-19T13:50:20;3.70;;;0.98;;
62709;SDS011;48770;51.624;5.886;2023-11-19T13:52:45;3.58;;;1.17;;
62709;SDS011;48770;51.624;5.886;2023-11-19T13:55:12;4.22;;;1.05;;
62709;SDS011;48770;51.624;5.886;2023-11-19T13:57:38;4.90;;;1.13;;
62709;SDS011;48770;51.624;5.886;2023-11-19T14:00:05;4.72;;;0.90;;
62709;SDS011;48770;51.624;5.886;2023-11-19T14:02:36;3.42;;;1.15;;
62709;SDS011;48770;51.624;5.886;2023-11-19T14:05:01;7.60;;;1.52;;
62709;SDS011;48770;51.624;5.886;2023-11-19T14:07:27;4.30;;;1.00;;
62709;SDS011;48770;51.624;5.886;2023-11-19T14:09:52;2.67;;;1.00;;
62709;SDS011;48770;51.624;5.886;2023-11-19T14:12:19;3.85;;;1.02;;
62709;SDS011;48770;51.624;5.886;2023-11-19T14:14:44;6.07;;;0.90;;
62709;SDS011;48770;51.624;5.886;2023-11-19T14:17:09;2.85;;;1.08;;
62709;SDS011;48770;51.624;5.886;2023-11-19T14:19:36;2.75;;;1.10;;
62709;SDS011;48770;51.624;5.886;2023-11-19T14:22:02;2.67;;;1.00;;
62709;SDS011;48770;51.624;5.886;2023-11-19T14:24:27;3.42;;;1.05;;
62709;SDS011;48770;51.624;5.886;2023-11-19T14:26:53;2.72;;;0.80;;
62709;SDS011;48770;51.624;5.886;2023-11-19T14:29:18;2.72;;;0.70;;
62709;SDS011;48770;51.624;5.886;2023-11-19T14:31:43;5.82;;;1.42;;
62709;SDS011;48770;51.624;5.886;2023-11-19T14:34:08;4.38;;;1.00;;
62709;SDS011;48770;51.624;5.886;2023-11-19T14:36:34;4.05;;;1.00;;
62709;SDS011;48770;51.624;5.886;2023-11-19T14:38:59;4.25;;;1.10;;
62709;SDS011;48770;51.624;5.886;2023-11-19T14:41:25;2.42;;;0.75;;
62709;SDS011;48770;51.624;5.886;2023-11-19T14:43:50;2.83;;;0.88;;
62709;SDS011;48770;51.624;5.886;2023-11-19T14:46:15;4.47;;;1.25;;
62709;SDS011;48770;51.624;5.886;2023-11-19T14:48:41;4.00;;;1.10;;
62709;SDS011;48770;51.624;5.886;2023-11-19T14:51:06;2.88;;;0.88;;
62709;SDS011;48770;51.624;5.886;2023-11-19T14:53:32;3.92;;;1.10;;
62709;SDS011;48770;51.624;5.886;2023-11-19T14:55:58;2.33;;;1.15;;
62709;SDS011;48770;51.624;5.886;2023-11-19T14:58:23;3.70;;;0.93;;
62709;SDS011;48770;51.624;5.886;2023-11-19T15:00:48;3.63;;;1.10;;
62709;SDS011;48770;51.624;5.886;2023-11-19T15:03:13;3.15;;;0.88;;
62709;SDS011;48770;51.624;5.886;2023-11-19T15:05:41;3.63;;;1.05;;
62709;SDS011;48770;51.624;5.886;2023-11-19T15:08:06;3.75;;;1.00;;
62709;SDS011;48770;51.624;5.886;2023-11-19T15:10:31;2.85;;;0.82;;
62709;SDS011;48770;51.624;5.886;2023-11-19T15:12:57;2.85;;;0.80;;
62709;SDS011;48770;51.624;5.886;2023-11-19T15:15:22;2.05;;;0.90;;